Time;durP1;ratioP1;P1;durP2;ratioP2;P2;SDS_P1;SDS_P2;PMS_P1;PMS_P2;Temp;Humidity;BMP_temperature;BMP_pressure;BME280_temperature;BME280_humidity;BME280_pressure;Samples;Min_cycle;Max_cycle;Signal;HPM_P1;HPM_P2
2022/12/18 00:01:44;;;;;;;39.07;23.43;;;;;;;-4.36;100.00;102871.78;5138069;27;20126;-37
2022/12/18 00:04:24;;;;;;;37.60;22.70;;;;;;;-4.26;100.00;102876.47;5137558;27;20019;-37
2022/12/18 00:06:49;;;;;;;38.17;22.30;;;;;;;-4.28;100.00;102853.72;5137390;27;20379;-37
2022/12/18 00:09:15;;;;;;;38.28;22.95;;;;;;;-4.19;100.00;102861.16;5136877;27;20031;-37
2022/12/18 00:11:40;;;;;;;37.80;23.10;;;;;;;-4.16;100.00;102868.88;5136012;27;20043;-37
2022/12/18 00:14:06;;;;;;;36.37;20.87;;;;;;;-4.12;100.00;102875.69;5137357;27;20035;-37
2022/12/18 00:16:32;;;;;;;34.23;22.03;;;;;;;-4.20;100.00;102855.00;5137288;27;20499;-37
2022/12/18 00:18:59;;;;;;;35.00;22.20;;;;;;;-4.19;100.00;102843.50;5136882;27;20030;-37
2022/12/18 00:21:27;;;;;;;32.35;20.65;;;;;;;-4.26;100.00;102820.13;5136840;27;20039;-37
2022/12/18 00:23:52;;;;;;;40.38;22.00;;;;;;;-4.32;100.00;102825.78;5136791;27;20019;-37
2022/12/18 00:26:44;;;;;;;34.38;21.23;;;;;;;-4.23;100.00;102841.13;5137028;27;20030;-37
2022/12/18 00:29:13;;;;;;;33.65;20.17;;;;;;;-4.37;100.00;102841.03;5133820;27;20040;-37
2022/12/18 00:31:39;;;;;;;34.15;20.58;;;;;;;-4.30;100.00;102842.38;5136402;27;20027;-37
2022/12/18 00:34:05;;;;;;;;;;;;;;;-4.25;100.00;102838.53;5137683;27;20070;-37
2022/12/18 00:36:33;;;;;;;32.53;20.27;;;;;;;-4.40;100.00;102832.31;5136557;27;19919;-37
2022/12/18 00:39:02;;;;;;;30.25;20.08;;;;;;;-4.51;100.00;102821.50;5136812;27;20019;-37
2022/12/18 00:44:14;;;;;;;36.67;20.67;;;;;;;-4.49;100.00;102829.34;5136759;27;20506;-37
2022/12/18 00:46:40;;;;;;;27.30;16.88;;;;;;;-4.29;100.00;102836.19;5136314;27;20022;-37
2022/12/18 00:49:06;;;;;;;31.27;19.58;;;;;;;-4.56;100.00;102801.56;5136775;27;20035;-37
2022/12/18 00:51:32;;;;;;;31.20;19.50;;;;;;;-4.35;100.00;102826.78;5136253;27;20375;-37
2022/12/18 00:53:57;;;;;;;30.35;19.45;;;;;;;-4.36;100.00;102825.09;5136020;27;20044;-37
2022/12/18 00:56:23;;;;;;;35.07;21.30;;;;;;;-4.44;100.00;102827.28;5136419;27;20039;-37
2022/12/18 00:58:49;;;;;;;34.17;20.75;;;;;;;-4.49;100.00;102829.34;5136616;27;20427;-37
2022/12/18 01:01:15;;;;;;;34.13;20.35;;;;;;;-4.46;100.00;102830.03;5136918;27;20103;-37
2022/12/18 01:03:40;;;;;;;32.08;20.58;;;;;;;-4.66;100.00;102817.91;5136014;27;20076;-37
2022/12/18 01:06:11;;;;;;;33.33;19.97;;;;;;;-4.69;100.00;102817.22;5136268;27;20019;-37
2022/12/18 01:08:37;;;;;;;30.52;19.67;;;;;;;-4.60;100.00;102837.84;5136539;27;20023;-37
2022/12/18 01:11:11;;;;;;;33.08;20.42;;;;;;;-4.60;100.00;102856.34;5135928;27;20027;-37
2022/12/18 01:13:37;;;;;;;31.83;20.02;;;;;;;-4.53;100.00;102857.72;5136239;27;20360;-37
2022/12/18 01:16:02;;;;;;;33.28;20.83;;;;;;;-4.61;100.00;102853.78;5135774;27;20042;-37
2022/12/18 01:18:28;;;;;;;30.02;19.67;;;;;;;-4.70;100.00;102852.50;5136093;27;20023;-37
2022/12/18 01:20:53;;;;;;;31.07;19.80;;;;;;;-4.59;100.00;102865.94;5135477;27;20023;-37
2022/12/18 01:23:19;;;;;;;32.40;21.27;;;;;;;-4.70;100.00;102852.50;5135888;27;20075;-37
2022/12/18 01:25:44;;;;;;;34.23;19.40;;;;;;;-4.61;100.00;102851.16;5134404;27;20074;-37
2022/12/18 01:28:09;;;;;;;30.43;19.13;;;;;;;-4.75;100.00;102844.81;5135966;27;20285;-37
2022/12/18 01:30:35;;;;;;;30.88;19.08;;;;;;;-4.76;100.00;102837.00;5136273;27;20054;-36
2022/12/18 01:33:00;;;;;;;29.07;19.03;;;;;;;-4.63;100.00;102851.25;5135307;27;20061;-37
2022/12/18 01:35:25;;;;;;;30.57;19.20;;;;;;;-4.72;100.00;102836.75;5135164;27;20125;-37
2022/12/18 01:37:54;;;;;;;30.40;19.13;;;;;;;-4.66;100.00;102836.41;5135342;27;20065;-36
2022/12/18 01:40:20;;;;;;;31.92;18.52;;;;;;;-4.72;100.00;102822.69;5134088;27;20035;-36
2022/12/18 01:42:50;;;;;;;30.17;19.60;;;;;;;-4.63;100.00;102831.91;5135466;27;20110;-37
2022/12/18 01:45:16;;;;;;;30.02;19.52;;;;;;;-4.82;100.00;102810.94;5135356;27;20344;-37
2022/12/18 01:47:45;;;;;;;30.33;18.77;;;;;;;-4.75;100.00;102838.69;5134146;27;20451;-37
2022/12/18 01:50:17;;;;;;;29.63;18.65;;;;;;;-4.75;100.00;102836.91;5135004;27;20075;-37
2022/12/18 01:52:46;;;;;;;31.08;18.65;;;;;;;-4.81;100.00;102844.31;5135079;27;20043;-37
2022/12/18 01:55:13;;;;;;;26.88;18.20;;;;;;;-4.75;100.00;102838.69;5135051;27;20042;-37
2022/12/18 01:57:39;;;;;;;28.40;17.63;;;;;;;-4.74;100.00;102840.38;5135163;27;20459;-36
2022/12/18 02:00:11;;;;;;;30.85;19.42;;;;;;;-4.88;100.00;102812.13;5133992;27;20391;-37
2022/12/18 02:02:37;;;;;;;28.88;18.15;;;;;;;-4.67;100.00;102841.78;5134769;27;20122;-37
2022/12/18 02:05:03;;;;;;;30.23;18.45;;;;;;;-4.89;100.00;102818.31;5134970;27;20023;-37
2022/12/18 02:07:46;;;;;;;29.23;18.55;;;;;;;-4.80;100.00;102833.66;5134488;27;20027;-37
2022/12/18 02:10:11;;;;;;;26.83;16.92;;;;;;;-4.84;100.00;102833.91;5134608;27;20041;-37
2022/12/18 02:12:39;;;;;;;27.63;18.30;;;;;;;-4.75;100.00;102826.34;5134757;27;20027;-37
2022/12/18 02:15:35;;;;;;;29.40;17.27;;;;;;;-4.75;100.00;102828.13;5135229;27;20359;-36
2022/12/18 02:18:24;;;;;;;30.02;18.10;;;;;;;-4.79;100.00;102824.78;5134321;27;20076;-37
2022/12/18 02:20:58;;;;;;;25.90;16.67;;;;;;;-4.79;100.00;102829.22;5134839;27;20106;-37
2022/12/18 02:23:44;;;;;;;25.10;16.50;;;;;;;-4.79;100.00;102819.50;5134770;27;20030;-37
2022/12/18 02:26:46;;;;;;;25.88;17.08;;;;;;;-4.79;100.00;102824.78;5134776;27;20049;-37
2022/12/18 02:29:17;;;;;;;25.05;17.30;;;;;;;-4.94;100.00;102830.91;5054017;28;20120;-36
2022/12/18 02:31:48;;;;;;;27.63;16.60;;;;;;;-5.00;100.00;102818.88;5071506;28;20391;-37
2022/12/18 02:34:16;;;;;;;30.30;18.08;;;;;;;-4.95;100.00;102831.84;5070806;28;20386;-37
2022/12/18 02:36:44;;;;;;;27.13;17.23;;;;;;;-4.94;100.00;102825.63;5070962;28;20045;-37
2022/12/18 02:39:13;;;;;;;23.90;15.93;;;;;;;-4.87;100.00;102818.25;5054112;28;20036;-37
2022/12/18 02:41:38;;;;;;;28.50;17.90;;;;;;;-4.82;100.00;102827.63;5070540;28;20033;-36
2022/12/18 02:44:09;;;;;;;24.08;16.13;;;;;;;-4.84;100.00;102832.09;5070591;28;20028;-36
2022/12/18 02:46:42;;;;;;;24.63;15.65;;;;;;;-4.83;100.00;102823.28;5070840;28;20035;-36
2022/12/18 02:49:19;;;;;;;26.90;16.08;;;;;;;-5.05;100.00;102778.72;5070898;28;20543;-37
2022/12/18 02:51:53;;;;;;;23.83;15.88;;;;;;;-4.94;100.00;102791.31;5070723;28;20048;-37
2022/12/18 02:54:56;;;;;;;25.73;16.42;;;;;;;-4.87;100.00;102810.34;5071034;28;20032;-37
2022/12/18 02:57:22;;;;;;;25.73;16.38;;;;;;;-4.99;100.00;102802.13;5010839;28;20042;-36
2022/12/18 03:00:05;;;;;;;25.10;16.07;;;;;;;-5.04;100.00;102792.75;5010843;28;20038;-37
2022/12/18 03:02:37;;;;;;;23.70;15.00;;;;;;;-4.96;100.00;102809.88;5010747;28;20049;-36
2022/12/18 03:05:12;;;;;;;24.17;15.77;;;;;;;-5.01;100.00;102814.56;5037039;28;20052;-36
2022/12/18 03:07:48;;;;;;;26.30;15.75;;;;;;;-4.98;100.00;102811.75;5050582;28;20111;-37
2022/12/18 03:10:19;;;;;;;21.33;14.45;;;;;;;-5.00;100.00;102803.06;5034482;28;20033;-37
2022/12/18 03:12:51;;;;;;;22.33;13.80;;;;;;;-4.97;100.00;102789.72;5050787;28;20045;-36
2022/12/18 03:15:51;;;;;;;26.02;15.60;;;;;;;-5.00;100.00;102789.88;5050911;28;20040;-37
2022/12/18 03:18:21;;;;;;;23.15;14.80;;;;;;;-5.18;100.00;102785.56;5011069;28;20037;-36
2022/12/18 03:20:51;;;;;;;22.25;14.50;;;;;;;-5.07;100.00;102798.22;5012275;28;20498;-37
2022/12/18 03:23:20;;;;;;;23.42;14.82;;;;;;;-5.21;100.00;102791.03;5014558;28;20038;-37
2022/12/18 03:25:48;;;;;;;24.48;14.40;;;;;;;-5.18;100.00;102791.69;5014929;28;20437;-37
2022/12/18 03:28:19;;;;;;;20.30;14.00;;;;;;;-5.32;100.00;102785.44;5014725;28;20034;-36
2022/12/18 03:30:49;;;;;;;23.35;15.40;;;;;;;-5.34;100.00;102800.50;5014578;28;20026;-37
2022/12/18 03:33:23;;;;;;;22.25;14.25;;;;;;;-5.35;100.00;102796.16;5067912;28;20450;-36
2022/12/18 03:35:49;;;;;;;24.55;14.73;;;;;;;-5.40;100.00;102798.19;5094560;28;20476;-37
2022/12/18 03:38:15;;;;;;;21.20;13.93;;;;;;;-5.34;100.00;102782.03;5094909;28;20047;-36
2022/12/18 03:40:44;;;;;;;24.25;15.52;;;;;;;-5.39;100.00;102784.06;5094632;28;20138;-37
2022/12/18 03:43:35;;;;;;;22.85;13.85;;;;;;;-5.32;100.00;102778.41;5094411;28;20042;-37
2022/12/18 03:46:11;;;;;;;24.35;14.80;;;;;;;-5.35;100.00;102789.09;5094273;28;20039;-36
2022/12/18 03:48:52;;;;;;;23.23;14.20;;;;;;;-5.30;100.00;102768.63;5094793;28;20036;-36
2022/12/18 03:51:26;;;;;;;19.23;13.30;;;;;;;-5.36;100.00;102776.00;5094685;28;20064;-37
2022/12/18 03:53:59;;;;;;;21.73;14.52;;;;;;;-5.36;100.00;102765.47;5094214;27;20032;-37
2022/12/18 03:56:30;;;;;;;20.65;12.77;;;;;;;-5.37;100.00;102769.00;5138154;27;20031;-36
2022/12/18 03:58:57;;;;;;;23.35;14.52;;;;;;;-5.40;100.00;102766.56;5137480;27;20165;-36
2022/12/18 04:01:31;;;;;;;19.40;13.10;;;;;;;-5.47;100.00;102764.22;5137617;27;20019;-36
2022/12/18 04:04:00;;;;;;;17.90;11.75;;;;;;;-5.44;100.00;102758.78;5137255;27;20023;-36
2022/12/18 04:06:26;;;;;;;19.55;13.32;;;;;;;-5.52;100.00;102745.16;5136273;27;20047;-37
2022/12/18 04:08:52;;;;;;;19.25;12.75;;;;;;;-5.43;100.00;102749.09;5136969;27;20368;-36
2022/12/18 04:11:17;;;;;;;;;;;;;;;-5.33;100.00;102744.19;5137520;27;20087;-37
2022/12/18 04:13:43;;;;;;;19.55;12.38;;;;;;;-5.46;100.00;102734.28;5137315;27;19993;-36
2022/12/18 04:16:09;;;;;;;18.63;12.30;;;;;;;-5.50;100.00;102731.91;5136971;27;20172;-37
2022/12/18 04:18:34;;;;;;;;;;;;;;;-5.43;100.00;102739.38;5136914;27;20420;-36
2022/12/18 04:20:59;;;;;;;17.85;11.35;;;;;;;-5.43;100.00;102744.66;5136970;27;19914;-36
2022/12/18 04:23:25;;;;;;;19.60;12.83;;;;;;;-5.49;100.00;102739.72;5136640;27;20023;-36
2022/12/18 04:25:50;;;;;;;19.20;11.90;;;;;;;-5.48;100.00;102736.16;5136892;27;20055;-36
2022/12/18 04:28:15;;;;;;;21.27;13.00;;;;;;;-5.46;100.00;102733.44;5136929;27;20076;-37
2022/12/18 04:30:41;;;;;;;19.13;12.20;;;;;;;-5.50;100.00;102735.38;5136759;27;20015;-37
2022/12/18 04:33:11;;;;;;;18.67;12.33;;;;;;;-5.53;100.00;102732.91;5136344;27;20088;-36
2022/12/18 04:35:37;;;;;;;17.80;12.00;;;;;;;-5.59;100.00;102721.84;5136790;27;20051;-36
2022/12/18 04:38:02;;;;;;;16.20;11.10;;;;;;;-5.40;100.00;102750.72;5137098;27;20034;-37
2022/12/18 04:40:27;;;;;;;17.13;10.93;;;;;;;-5.45;100.00;102749.19;5136521;27;20055;-36
2022/12/18 04:42:52;;;;;;;18.10;11.13;;;;;;;-5.45;100.00;102759.72;5136915;27;20023;-36
2022/12/18 04:45:18;;;;;;;16.70;10.90;;;;;;;-5.59;100.00;102751.69;5135738;27;20031;-37
2022/12/18 04:47:43;;;;;;;17.03;11.80;;;;;;;-5.62;100.00;102754.47;5136612;27;20098;-36
2022/12/18 04:50:09;;;;;;;17.47;10.77;;;;;;;-5.63;100.00;102752.75;5136388;27;20482;-36
2022/12/18 04:52:34;;;;;;;16.52;10.75;;;;;;;-5.59;100.00;102759.59;5136882;27;20343;-36
2022/12/18 04:55:00;;;;;;;19.08;11.45;;;;;;;-5.46;100.00;102767.72;5136238;27;20035;-36
2022/12/18 04:57:25;;;;;;;20.17;12.67;;;;;;;-5.43;100.00;102775.47;5136937;27;20472;-37
2022/12/18 04:59:51;;;;;;;16.02;11.45;;;;;;;-5.40;100.00;102777.94;5136233;27;20026;-36
2022/12/18 05:02:16;;;;;;;16.60;10.97;;;;;;;-5.52;100.00;102771.50;5135819;27;20446;-36
2022/12/18 05:04:41;;;;;;;16.00;10.77;;;;;;;-5.43;100.00;102783.38;5136283;27;20019;-37
2022/12/18 05:07:07;;;;;;;16.40;10.63;;;;;;;-5.45;100.00;102788.72;5135839;27;20024;-37
2022/12/18 05:09:32;;;;;;;14.97;10.30;;;;;;;-5.43;100.00;102788.63;5136312;27;20019;-36
2022/12/18 05:11:57;;;;;;;13.43;8.80;;;;;;;-5.39;100.00;102778.78;5136061;27;20463;-36
2022/12/18 05:14:23;;;;;;;17.17;10.87;;;;;;;-5.40;100.00;102782.38;5134144;27;20118;-36
2022/12/18 05:16:48;;;;;;;15.70;9.37;;;;;;;-5.46;100.00;102787.03;5135841;27;20027;-36
2022/12/18 05:19:13;;;;;;;18.03;10.70;;;;;;;-5.48;100.00;102790.66;5134405;27;20399;-36
2022/12/18 05:21:39;;;;;;;14.67;9.73;;;;;;;-5.44;100.00;102795.69;5135715;27;20030;-36
2022/12/18 05:24:04;;;;;;;14.93;10.23;;;;;;;-5.47;100.00;102777.38;5136105;27;20019;-37
2022/12/18 05:26:30;;;;;;;13.23;9.23;;;;;;;-5.24;100.00;102780.63;5135830;27;20450;-37
2022/12/18 05:28:55;;;;;;;13.80;9.47;;;;;;;-5.33;100.00;102774.03;5136298;27;20031;-37
2022/12/18 05:31:20;;;;;;;16.13;10.80;;;;;;;-5.40;100.00;102766.56;5135496;27;20019;-36
2022/12/18 05:33:46;;;;;;;16.70;10.67;;;;;;;-5.45;100.00;102772.06;5135375;27;20091;-37
2022/12/18 05:36:11;;;;;;;15.60;10.53;;;;;;;-5.37;100.00;102782.19;5135477;27;20027;-36
2022/12/18 05:38:38;;;;;;;13.98;10.10;;;;;;;-5.58;100.00;102758.66;5134625;27;20062;-36
2022/12/18 05:41:04;;;;;;;12.98;9.20;;;;;;;-5.35;100.00;102775.91;5135243;27;20117;-36
2022/12/18 05:43:29;;;;;;;16.92;10.52;;;;;;;-5.33;100.00;102768.75;5134941;27;20031;-36
2022/12/18 05:45:56;;;;;;;14.27;10.13;;;;;;;-5.43;100.00;102775.47;5134877;27;20023;-36
2022/12/18 05:48:22;;;;;;;15.23;9.15;;;;;;;-5.55;100.00;102766.41;5135175;27;20034;-36
2022/12/18 05:50:48;;;;;;;14.52;10.35;;;;;;;-5.62;100.00;102738.66;5135141;27;20124;-36
2022/12/18 05:53:16;;;;;;;14.07;10.25;;;;;;;-5.60;100.00;102749.13;5135874;27;20023;-36
2022/12/18 05:55:43;;;;;;;13.25;9.77;;;;;;;-5.62;100.00;102751.81;5134390;27;20051;-37
2022/12/18 05:58:09;;;;;;;15.52;9.68;;;;;;;-5.57;100.00;102744.53;5134924;27;20023;-37
2022/12/18 06:00:39;;;;;;;13.52;9.95;;;;;;;-5.62;100.00;102740.44;5134900;27;20024;-37
2022/12/18 06:03:05;;;;;;;14.20;10.23;;;;;;;-5.62;100.00;102751.81;5134764;27;20042;-36
2022/12/18 06:05:35;;;;;;;;;;;;;;;-5.56;100.00;102746.25;5135550;27;20027;-36
2022/12/18 06:08:00;;;;;;;14.73;9.02;;;;;;;-5.58;100.00;102745.47;5135577;27;19907;-36
2022/12/18 06:10:26;;;;;;;17.23;10.90;;;;;;;-5.68;100.00;102744.25;5134831;27;20426;-36
2022/12/18 06:12:51;;;;;;;11.17;8.10;;;;;;;-5.54;100.00;102733.84;5135550;27;20340;-36
2022/12/18 06:15:16;;;;;;;13.97;9.67;;;;;;;-5.53;100.00;102737.31;5134750;27;20081;-36
2022/12/18 06:17:42;;;;;;;14.87;10.13;;;;;;;-5.70;100.00;102730.31;5134629;27;20502;-37
2022/12/18 06:20:08;;;;;;;13.80;9.15;;;;;;;-5.70;100.00;102728.53;5134515;27;20031;-36
2022/12/18 06:22:34;;;;;;;17.45;9.82;;;;;;;-5.54;100.00;102733.00;5135165;27;20467;-36
2022/12/18 06:25:00;;;;;;;19.48;10.35;;;;;;;-5.57;100.00;102747.16;5134583;27;20050;-37
2022/12/18 06:27:25;;;;;;;14.83;9.60;;;;;;;-5.56;100.00;102741.00;5135075;27;20528;-37
2022/12/18 06:29:50;;;;;;;16.47;10.47;;;;;;;-5.60;100.00;102752.63;5134748;27;20023;-37
2022/12/18 06:32:16;;;;;;;13.27;9.20;;;;;;;-5.60;100.00;102755.25;5134252;27;20115;-37
2022/12/18 06:34:41;;;;;;;14.85;10.20;;;;;;;-5.69;100.00;102739.91;5134337;27;20043;-37
2022/12/18 06:37:07;;;;;;;17.10;11.37;;;;;;;-5.56;100.00;102742.75;5134198;27;20068;-37
2022/12/18 06:39:32;;;;;;;15.77;10.60;;;;;;;-5.56;100.00;102743.63;5135161;27;20257;-37
2022/12/18 06:41:57;;;;;;;14.93;10.13;;;;;;;-5.77;100.00;102706.03;5134561;27;20162;-37
2022/12/18 06:44:23;;;;;;;14.00;9.73;;;;;;;-5.48;100.00;102738.78;5132739;27;20035;-37
2022/12/18 06:46:48;;;;;;;15.20;10.40;;;;;;;-5.57;100.00;102722.59;5133945;27;20027;-37
2022/12/18 06:49:15;;;;;;;14.90;10.00;;;;;;;-5.53;100.00;102732.06;5133959;27;20042;-37
2022/12/18 06:51:41;;;;;;;14.73;9.70;;;;;;;-5.52;100.00;102728.47;5134549;27;20033;-37
2022/12/18 06:54:06;;;;;;;13.63;9.75;;;;;;;-5.53;100.00;102725.00;5134047;27;20467;-37
2022/12/18 06:56:31;;;;;;;15.07;9.47;;;;;;;-5.49;100.00;102721.25;5132548;27;20110;-37
2022/12/18 06:58:57;;;;;;;13.40;9.17;;;;;;;-5.39;100.00;102728.69;5134345;27;20068;-37
2022/12/18 07:01:22;;;;;;;15.43;10.40;;;;;;;-5.42;100.00;102732.31;5132805;27;20051;-37
2022/12/18 07:03:55;;;;;;;14.88;9.85;;;;;;;-5.50;100.00;102722.19;5134229;27;20024;-37
2022/12/18 07:06:22;;;;;;;14.93;10.30;;;;;;;-5.64;100.00;102711.53;5133947;27;20066;-37
2022/12/18 07:08:49;;;;;;;16.23;10.77;;;;;;;-5.56;100.00;102719.03;5134367;27;20027;-37
2022/12/18 07:11:15;;;;;;;15.77;10.55;;;;;;;-5.56;100.00;102713.75;5133619;27;20023;-37
2022/12/18 07:13:40;;;;;;;;;;;;;;;-5.50;100.00;102714.28;5134342;27;20076;-37
2022/12/18 07:16:07;;;;;;;12.57;8.73;;;;;;;-5.50;100.00;102695.84;5134112;27;19911;-37
2022/12/18 07:18:32;;;;;;;15.00;10.25;;;;;;;-5.67;100.00;102700.28;5132832;28;20038;-37
2022/12/18 07:20:58;;;;;;;15.07;10.03;;;;;;;-5.65;100.00;102701.94;5115517;28;20377;-37
2022/12/18 07:23:23;;;;;;;16.37;10.77;;;;;;;-5.63;100.00;102692.13;5134352;27;20050;-37
2022/12/18 07:25:49;;;;;;;13.87;10.33;;;;;;;-5.62;100.00;102685.94;5133710;27;20265;-37
2022/12/18 07:28:14;;;;;;;15.17;10.03;;;;;;;-5.70;100.00;102688.13;5134078;27;20023;-37
2022/12/18 07:30:40;;;;;;;15.90;10.40;;;;;;;-5.77;100.00;102678.84;5132387;28;20038;-37
2022/12/18 07:33:05;;;;;;;16.70;10.53;;;;;;;-5.78;100.00;102671.88;5133828;27;20046;-37
2022/12/18 07:35:32;;;;;;;17.95;11.27;;;;;;;-5.82;100.00;102662.41;5134244;27;20062;-37
2022/12/18 07:37:57;;;;;;;13.18;10.18;;;;;;;-5.73;100.00;102668.06;5133459;27;20031;-37
2022/12/18 07:40:22;;;;;;;15.93;10.10;;;;;;;-5.72;100.00;102664.47;5133435;27;20080;-37
2022/12/18 07:42:48;;;;;;;18.03;11.67;;;;;;;-5.84;100.00;102653.75;5132478;28;20096;-37
2022/12/18 07:45:13;;;;;;;15.50;11.00;;;;;;;-5.78;100.00;102656.91;5134295;27;20031;-37
2022/12/18 07:47:41;;;;;;;15.37;10.80;;;;;;;-5.77;100.00;102647.22;5134358;27;20023;-37
2022/12/18 07:50:06;;;;;;;15.60;10.88;;;;;;;-5.87;100.00;102635.47;5133579;27;20057;-37
2022/12/18 07:52:32;;;;;;;16.92;11.32;;;;;;;-5.87;100.00;102628.41;5133558;27;20062;-37
2022/12/18 07:54:57;;;;;;;18.33;11.10;;;;;;;-5.73;100.00;102627.69;5133300;27;20027;-37
2022/12/18 07:57:22;;;;;;;15.33;10.97;;;;;;;-5.73;100.00;102622.41;5133236;27;20027;-37
2022/12/18 07:59:48;;;;;;;15.53;11.10;;;;;;;-5.74;100.00;102625.97;5133520;27;20046;-37
2022/12/18 08:02:13;;;;;;;13.90;10.33;;;;;;;-5.67;100.00;102640.53;5133185;27;20031;-37
2022/12/18 08:04:38;;;;;;;15.77;10.73;;;;;;;-5.67;100.00;102640.53;5133622;27;20029;-37
2022/12/18 08:07:03;;;;;;;17.87;12.00;;;;;;;-5.62;100.00;102635.00;5135592;27;20110;-37
2022/12/18 08:09:29;;;;;;;16.00;11.30;;;;;;;-5.62;100.00;102641.13;5137197;27;20122;-37
2022/12/18 08:11:54;;;;;;;16.63;11.83;;;;;;;-5.57;100.00;102647.00;5135350;27;20031;-37
2022/12/18 08:14:19;;;;;;;15.93;10.87;;;;;;;-5.52;100.00;102639.69;5136432;27;20027;-37
2022/12/18 08:16:45;;;;;;;18.73;11.80;;;;;;;-5.45;100.00;102646.34;5137332;27;20031;-37
2022/12/18 08:19:10;;;;;;;16.60;10.97;;;;;;;-5.43;100.00;102641.84;5137414;27;20027;-37
2022/12/18 08:21:36;;;;;;;17.13;11.20;;;;;;;-5.60;100.00;102622.59;5136941;27;20031;-37
2022/12/18 08:24:02;;;;;;;15.98;11.15;;;;;;;-5.54;100.00;102630.19;5136215;27;20026;-37
2022/12/18 08:26:30;;;;;;;15.77;11.40;;;;;;;-5.31;100.00;102661.44;5136524;27;20019;-37
2022/12/18 08:28:57;;;;;;;16.15;11.18;;;;;;;-5.33;100.00;102646.59;5137364;27;20050;-37
2022/12/18 08:31:23;;;;;;;17.00;10.75;;;;;;;-5.19;100.00;102657.25;5136803;27;20042;-37
2022/12/18 08:33:50;;;;;;;15.18;11.00;;;;;;;-5.22;100.00;102639.81;5136595;27;20027;-38
2022/12/18 08:36:15;;;;;;;15.13;10.75;;;;;;;-5.17;100.00;102650.13;5135705;27;20436;-37
2022/12/18 08:38:41;;;;;;;15.05;10.57;;;;;;;-5.09;100.00;102650.53;5137390;27;20023;-36
2022/12/18 08:41:08;;;;;;;14.57;10.97;;;;;;;-4.98;100.00;102639.38;5137091;27;20023;-36
2022/12/18 08:46:20;;;;;;;15.82;11.35;;;;;;;-5.03;100.00;102623.81;5136262;27;20037;-36
2022/12/18 08:48:46;;;;;;;16.52;11.98;;;;;;;-4.95;100.00;102626.03;5136681;27;20030;-36
2022/12/18 08:51:11;;;;;;;;;;;;;;;-4.88;100.00;102615.94;5136754;27;20019;-36
2022/12/18 08:53:37;;;;;;;14.00;9.97;;;;;;;-4.92;100.00;102610.88;5136679;27;20271;-36
2022/12/18 08:56:03;;;;;;;16.75;11.07;;;;;;;-4.86;100.00;102619.38;5136202;27;20287;-36
2022/12/18 08:58:29;;;;;;;18.73;12.98;;;;;;;-4.93;100.00;102613.56;5136277;27;20027;-36
2022/12/18 09:00:59;;;;;;;17.52;12.40;;;;;;;-4.81;100.00;102618.16;5135955;27;20034;-36
2022/12/18 09:03:25;;;;;;;16.30;11.73;;;;;;;-4.69;100.00;102613.97;5136049;27;20031;-36
2022/12/18 09:05:50;;;;;;;16.00;11.27;;;;;;;-4.64;100.00;102617.19;5135771;27;20084;-36
2022/12/18 09:08:15;;;;;;;20.57;13.27;;;;;;;-4.65;100.00;102618.13;5135846;27;20222;-36
2022/12/18 09:10:43;;;;;;;18.80;13.00;;;;;;;-4.58;100.00;102618.66;5136017;27;20087;-36
2022/12/18 09:13:10;;;;;;;16.42;11.35;;;;;;;-4.46;100.00;102629.31;5136180;27;20470;-37
2022/12/18 09:15:45;;;;;;;17.10;11.73;;;;;;;-4.41;100.00;102626.41;5136469;27;20034;-36
2022/12/18 09:18:11;;;;;;;15.18;10.55;;;;;;;-4.38;100.00;102614.84;5134893;27;20519;-37
2022/12/18 09:20:37;;;;;;;17.00;11.48;;;;;;;-4.35;100.00;102619.91;5135817;27;20027;-36
2022/12/18 09:23:03;;;;;;;15.80;11.05;;;;;;;-4.26;100.00;102644.00;5136203;27;20362;-37
2022/12/18 09:25:33;;;;;;;17.25;11.35;;;;;;;-4.35;100.00;102627.84;5135680;27;20031;-36
2022/12/18 09:28:19;;;;;;;17.75;10.98;;;;;;;-4.06;100.00;102658.66;5135914;27;20031;-36
2022/12/18 09:30:47;;;;;;;15.45;10.68;;;;;;;-4.01;100.00;102651.31;5135360;27;20126;-36
2022/12/18 09:33:13;;;;;;;15.25;10.50;;;;;;;-3.98;100.00;102647.66;5136073;27;20038;-36
2022/12/18 09:35:40;;;;;;;17.15;11.35;;;;;;;-4.02;100.00;102625.84;5136128;27;20039;-37
2022/12/18 09:38:08;;;;;;;18.08;12.38;;;;;;;-3.99;100.00;102620.38;5135423;27;20095;-36
2022/12/18 09:40:55;;;;;;;19.33;12.57;;;;;;;-4.02;100.00;102622.34;5135320;27;20080;-36
2022/12/18 09:43:29;;;;;;;18.83;12.30;;;;;;;-3.93;100.00;102609.41;5134733;27;20043;-37
2022/12/18 09:46:00;;;;;;;18.83;12.50;;;;;;;-3.92;100.00;102607.63;5135013;27;20058;-36
2022/12/18 09:48:32;;;;;;;17.13;11.68;;;;;;;-3.86;100.00;102601.09;5135561;27;20024;-36
2022/12/18 09:51:03;;;;;;;15.80;12.32;;;;;;;-3.83;100.00;102603.56;5135512;27;20027;-36
2022/12/18 09:53:35;;;;;;;14.88;10.68;;;;;;;-3.80;100.00;102593.66;5135731;27;20034;-37
2022/12/18 09:56:03;;;;;;;16.08;11.13;;;;;;;-3.77;100.00;102587.31;5135877;27;20019;-37
2022/12/18 09:58:38;;;;;;;14.18;11.40;;;;;;;-3.75;100.00;102573.06;5135258;27;20087;-37
2022/12/18 10:01:19;;;;;;;16.88;12.30;;;;;;;-3.66;100.00;102587.50;5135541;27;20432;-37
2022/12/18 10:03:45;;;;;;;14.48;11.45;;;;;;;-3.74;100.00;102574.78;5135261;27;20049;-37
2022/12/18 10:06:34;;;;;;;17.43;12.10;;;;;;;-3.69;100.00;102587.72;5135177;27;20031;-37
2022/12/18 10:09:23;;;;;;;15.10;11.45;;;;;;;-3.59;100.00;102587.97;5135122;27;20058;-37
2022/12/18 10:12:08;;;;;;;18.25;13.13;;;;;;;-3.49;100.00;102603.16;5135601;27;20371;-37
2022/12/18 10:14:47;;;;;;;15.75;12.45;;;;;;;-3.53;100.00;102577.84;5134771;27;20030;-37
2022/12/18 10:17:18;;;;;;;15.80;12.32;;;;;;;-3.41;100.00;102590.31;5134743;27;20031;-37
2022/12/18 10:19:51;;;;;;;16.55;11.52;;;;;;;-3.42;100.00;102572.72;5135022;27;20033;-37
2022/12/18 10:22:25;;;;;;;15.05;12.02;;;;;;;-3.29;100.00;102587.81;5135228;27;20035;-37
2022/12/18 10:25:14;;;;;;;16.77;12.63;;;;;;;-3.20;100.00;102595.19;5134822;27;20031;-37
2022/12/18 10:27:40;;;;;;;16.77;12.40;;;;;;;-3.18;100.00;102587.97;5134627;27;20023;-37
2022/12/18 10:30:21;;;;;;;17.35;12.15;;;;;;;-3.13;100.00;102581.44;5133640;27;20508;-37
2022/12/18 10:32:47;;;;;;;15.90;11.57;;;;;;;-3.11;100.00;102571.63;5133041;27;20034;-37
2022/12/18 10:35:23;;;;;;;17.17;11.90;;;;;;;-3.15;100.00;102561.31;5135406;27;20424;-36
2022/12/18 10:38:30;;;;;;;12.95;9.60;;;;;;;-3.02;100.00;102561.38;5134140;27;20023;-37
2022/12/18 10:40:59;;;;;;;16.80;11.95;;;;;;;-3.16;100.00;102525.25;5134410;27;20106;-37
2022/12/18 10:43:36;;;;;;;16.42;11.85;;;;;;;-2.91;100.00;102543.84;5134527;27;20035;-35
2022/12/18 10:46:07;;;;;;;17.02;13.02;;;;;;;-2.88;100.00;102532.19;5134383;27;20113;-36
2022/12/18 10:48:40;;;;;;;14.93;11.55;;;;;;;-2.80;100.00;102529.03;5134227;27;20030;-36
2022/12/18 10:51:07;;;;;;;14.88;11.38;;;;;;;-2.78;100.00;102527.13;5133873;27;20055;-36
2022/12/18 10:53:36;;;;;;;16.50;12.65;;;;;;;-2.73;100.00;102520.59;5133929;27;20035;-36
2022/12/18 10:56:04;;;;;;;18.70;12.45;;;;;;;-2.80;100.00;102513.16;5134147;27;20019;-36
2022/12/18 10:58:35;;;;;;;16.33;11.45;;;;;;;-2.74;100.00;102510.91;5134389;27;20024;-35
2022/12/18 11:01:06;;;;;;;16.13;12.52;;;;;;;-2.69;100.00;102515.91;5134308;27;20114;-37
2022/12/18 11:03:37;;;;;;;16.02;11.65;;;;;;;-2.64;100.00;102509.34;5134025;27;20034;-36
2022/12/18 11:06:10;;;;;;;15.05;11.73;;;;;;;-2.60;100.00;102504.69;5134012;27;20032;-36
2022/12/18 11:08:36;;;;;;;15.52;11.75;;;;;;;-2.56;100.00;102502.69;5133654;27;20038;-36
2022/12/18 11:11:04;;;;;;;16.25;11.93;;;;;;;-2.55;100.00;102501.72;5133933;27;20019;-36
2022/12/18 11:13:31;;;;;;;15.85;11.55;;;;;;;-2.49;100.00;102507.47;5132487;28;20043;-36
2022/12/18 11:15:57;;;;;;;16.90;11.70;;;;;;;-2.46;100.00;102511.69;5133615;27;20031;-36
2022/12/18 11:18:33;;;;;;;17.75;12.70;;;;;;;-2.50;100.00;102511.06;5134486;27;20043;-36